Thunder radar more information blitzortung!


Radar de pluja more information rain snow radar


Visita la nostra xarxa de llocs de meteo:

Template documentation
and downloads

And another site



No particular awareness of the weather is required.    There are no Weather-warnings

Pagina Historial Weather Underground text

Diari Resum Setembre 6, 2017 Unitats:  Imperial    Mètric   Tant
« Previous Dia
SegĂźent Dia »
Diari Setmana Mensual Anual Personalitzada
  Maxima: Minima: Media:
Temperatura: 85.6 °F 66.7 °F 75.9 °F
Punt de rosada: 68.2 °F 52.3 °F 64.8 °F
Humitat: 88 % 53 % 69 %
Wind Speed: 13.8 mph 0 mph 3.3 mph
RĂ fegues de vent: 13.8 mph - -
Vent:- - South
Pression baro: 30.2 in 30 in -
Precipitacions: 0 in    
Historical Graphs
 
 
Dades de taula per Setembre 6, 2017
Temps Temperatura Punt de rosada Pression baro Vent Wind Speed RĂ fegues de vent Humitat Rainfall Rate (Hourly)
00:00 69.4 °F 65.1 °F 30.1 in SW 1 mph 1 mph 86 % 0 in
00:02 72.7 °F 64.2 °F 30.1 in WSW 2.3 mph 2.3 mph 75 % 0 in
00:10 69.4 °F 65.1 °F 30.1 in Calm   2 mph 86 % 0 in
00:20 68.9 °F 64.6 °F 30.1 in ESE 1 mph 2 mph 86 % 0 in
00:30 68.7 °F 64.4 °F 30.1 in SSW 1 mph 2 mph 86 % 0 in
00:40 68.2 °F 63.5 °F 30.1 in SW 2 mph 3 mph 85 % 0 in
00:50 68 °F 63.7 °F 30.1 in Calm   3 mph 86 % 0 in
01:00 68 °F 64 °F 30.1 in Calm     87 % 0 in
01:10 68 °F 64 °F 30.1 in Calm   1 mph 87 % 0 in
01:20 68 °F 64 °F 30.1 in Calm     87 % 0 in
01:30 67.6 °F 63.7 °F 30.1 in NNE 1 mph 1 mph 87 % 0 in
01:40 67.6 °F 64 °F 30.1 in Calm     88 % 0 in
01:50 67.6 °F 64 °F 30.1 in Calm     88 % 0 in
02:00 67.6 °F 64 °F 30.1 in Calm     88 % 0 in
02:10 67.6 °F 64 °F 30.1 in Calm   1 mph 88 % 0 in
02:20 67.5 °F 63.9 °F 30.1 in Calm     88 % 0 in
02:30 66.9 °F 63.1 °F 30.1 in Calm   2 mph 88 % 0 in
02:40 67.1 °F 63.3 °F 30.1 in Calm     88 % 0 in
02:50 67.1 °F 63.3 °F 30.1 in Calm   1 mph 88 % 0 in
03:00 66.7 °F 63.1 °F 30.1 in Calm   2 mph 88 % 0 in
03:10 66.7 °F 63.1 °F 30.1 in Calm   2 mph 88 % 0 in
03:20 66.7 °F 62.8 °F 30.1 in SW 2 mph 3 mph 87 % 0 in
03:30 66.7 °F 63.1 °F 30.1 in Calm   3 mph 88 % 0 in
03:40 66.7 °F 63.1 °F 30.1 in SW 1 mph 2 mph 88 % 0 in
03:50 67.3 °F 63.7 °F 30.1 in SW 1 mph 2 mph 88 % 0 in
04:00 69.1 °F 65.5 °F 30.1 in Calm   1 mph 88 % 0 in
04:10 69.3 °F 64.9 °F 30.1 in SW 1 mph 2 mph 86 % 0 in
04:20 69.8 °F 64.8 °F 30.1 in SW 1 mph 2 mph 84 % 0 in
04:30 71.4 °F 66 °F 30.1 in Calm   2 mph 83 % 0 in
04:40 72.9 °F 66.9 °F 30.1 in Calm   2 mph 82 % 0 in
04:50 75 °F 68.2 °F 30.1 in ENE 1 mph 2 mph 79 % 0 in
09:54 74.1 °F 66.4 °F 30.1 in East 2.3 mph 2.3 mph 77 % 0 in
09:55 74.1 °F 66.4 °F 30.1 in East 2.3 mph 2.3 mph 77 % 0 in
10:00 74.5 °F 66.7 °F 30.1 in SSE 3.3 mph 3.3 mph 77 % 0 in
10:05 74.3 °F 66.6 °F 30.1 in SW 2.3 mph 2.3 mph 77 % 0 in
10:10 74.3 °F 66.6 °F 30.1 in SE 1.2 mph 1.2 mph 77 % 0 in
10:15 74.7 °F 66.6 °F 30.1 in SW 2.3 mph 2.3 mph 76 % 0 in
10:20 75.2 °F 66.7 °F 30.1 in South 4.6 mph 4.6 mph 75 % 0 in
10:25 75.6 °F 67.1 °F 30.2 in South 3.8 mph 3.8 mph 75 % 0 in
10:30 75.4 °F 66.6 °F 30.2 in ENE 1.2 mph 1.2 mph 74 % 0 in
10:35 75.2 °F 66.4 °F 30.2 in ESE 2.9 mph 2.9 mph 74 % 0 in
10:36 75.2 °F 66.4 °F 30.2 in SE 2.3 mph 2.3 mph 74 % 0 in
10:41 74.8 °F 66 °F 30.1 in WSW 2.3 mph 2.3 mph 74 % 0 in
10:46 74.8 °F 66 °F 30.1 in SW 3.5 mph 3.5 mph 74 % 0 in
10:51 75.2 °F 65.7 °F 30.1 in SSE 3.5 mph 3.5 mph 72 % 0 in
10:56 76.1 °F 66.7 °F 30.2 in SW 1.2 mph 1.2 mph 73 % 0 in
11:01 76.5 °F 66.7 °F 30.2 in SW 1.2 mph 1.2 mph 72 % 0 in
11:06 76.3 °F 66.2 °F 30.2 in South 4.6 mph 4.6 mph 71 % 0 in
11:11 76.5 °F 66.4 °F 30.2 in SW 1.2 mph   71 % 0 in
11:16 76.8 °F 66.7 °F 30.2 in NNE 2.4 mph 2.4 mph 71 % 0 in
11:21 76.6 °F 66.6 °F 30.2 in NE 2.3 mph 2.3 mph 71 % 0 in
11:26 76.3 °F 66.2 °F 30.1 in SW 4.6 mph 4.6 mph 71 % 0 in
11:31 76.8 °F 66.4 °F 30.1 in SW 2.9 mph 2.9 mph 70 % 0 in
11:36 77 °F 65.7 °F 30.1 in SSE 4.6 mph 4.6 mph 68 % 0 in
11:41 77.5 °F 65.7 °F 30.1 in ENE 2.4 mph   67 % 0 in
11:46 77.5 °F 65.3 °F 30.1 in ESE 3.5 mph 3.5 mph 66 % 0 in
11:51 77.9 °F 66 °F 30.1 in NE 3.5 mph 3.5 mph 67 % 0 in
11:56 77.9 °F 65.7 °F 30.2 in NNE 2.9 mph 2.9 mph 66 % 0 in
12:01 78.4 °F 65.7 °F 30.2 in SSE 4.6 mph 4.6 mph 65 % 0 in
12:06 79.5 °F 67.3 °F 30.2 in NNE 2.3 mph 2.3 mph 66 % 0 in
12:11 80.6 °F 67.3 °F 30.1 in SW 3.5 mph 3.5 mph 64 % 0 in
12:16 80.4 °F 67.6 °F 30.1 in WSW 3.5 mph 3.5 mph 65 % 0 in
12:21 80.8 °F 66.6 °F 30.1 in SSE 3.5 mph 3.5 mph 62 % 0 in
12:26 81 °F 66.7 °F 30.1 in SW 3.8 mph 3.8 mph 62 % 0 in
12:31 80.8 °F 66.6 °F 30.1 in WSW 4.3 mph 4.3 mph 62 % 0 in
12:36 80.2 °F 66 °F 30.1 in South 2.3 mph 2.3 mph 62 % 0 in
12:41 80.2 °F 66.6 °F 30.1 in WSW 3.8 mph 3.8 mph 63 % 0 in
12:46 80.6 °F 65.8 °F 30.1 in West 3.5 mph 3.5 mph 61 % 0 in
12:51 80.6 °F 65.5 °F 30.1 in SW 5.8 mph 5.8 mph 60 % 0 in
12:56 81.7 °F 66 °F 30.1 in SSE 2.3 mph 2.3 mph 59 % 0 in
13:01 81.7 °F 64.9 °F 30.1 in East 5.8 mph 5.8 mph 57 % 0 in
13:06 81.9 °F 65.1 °F 30.1 in East 4.6 mph 4.6 mph 57 % 0 in
13:11 82 °F 65.3 °F 30.1 in East 3.5 mph 3.5 mph 57 % 0 in
13:16 82.6 °F 64.8 °F 30.1 in South 3.5 mph 3.5 mph 55 % 0 in
13:21 81.9 °F 63.7 °F 30.1 in ESE 5.8 mph 5.8 mph 54 % 0 in
13:26 81 °F 64.2 °F 30.1 in NE 2.3 mph 2.3 mph 57 % 0 in
13:31 81.1 °F 64.9 °F 30.1 in North 1.2 mph 1.4 mph 58 % 0 in
13:36 81.1 °F 64 °F 30.1 in East 5.8 mph 5.8 mph 56 % 0 in
13:41 80.6 °F 64 °F 30.1 in NW 4.6 mph 4.6 mph 57 % 0 in
13:46 80.6 °F 64.6 °F 30.1 in ENE 6 mph 6 mph 58 % 0 in
13:51 81.1 °F 65.5 °F 30.1 in ESE 6.9 mph 6.9 mph 59 % 0 in
13:56 81 °F 64.8 °F 30.1 in North 5.8 mph 5.8 mph 58 % 0 in
14:01 80.4 °F 65.3 °F 30.1 in East 6.9 mph 6.9 mph 60 % 0 in
14:06 80.2 °F 65.7 °F 30.1 in WSW 3.5 mph 3.5 mph 61 % 0 in
14:11 81.3 °F 65.7 °F 30.1 in SE 2.9 mph 2.9 mph 59 % 0 in
14:16 82.4 °F 66 °F 30.1 in SSE 3.5 mph 3.5 mph 58 % 0 in
14:21 81.7 °F 65.5 °F 30.1 in ESE 5.9 mph 5.9 mph 58 % 0 in
14:26 81.5 °F 65.3 °F 30.1 in SSE 2.6 mph 2.6 mph 58 % 0 in
14:31 81.3 °F 65.1 °F 30.1 in SSE 3.5 mph 3.5 mph 58 % 0 in
14:36 80.6 °F 65.5 °F 30.1 in ESE 8.1 mph 8.1 mph 60 % 0 in
14:41 80.1 °F 65.5 °F 30.1 in ESE 6 mph 6 mph 61 % 0 in
14:46 80.6 °F 65.5 °F 30.1 in SE 6.2 mph 6.2 mph 60 % 0 in
14:51 80.2 °F 65.7 °F 30.1 in ESE 9.2 mph 9.2 mph 61 % 0 in
14:56 79.3 °F 65.1 °F 30.1 in ESE 10.4 mph 10.4 mph 62 % 0 in
15:01 79.5 °F 65.5 °F 30.1 in ESE 7.6 mph 7.6 mph 62 % 0 in
15:06 79.5 °F 65.5 °F 30.1 in ENE 10.4 mph 10.4 mph 62 % 0 in
15:11 79.3 °F 65.1 °F 30.1 in ENE 10.4 mph 10.4 mph 62 % 0 in
15:16 79.7 °F 65.5 °F 30.1 in SE 7.4 mph 7.4 mph 62 % 0 in
15:21 79.7 °F 65.1 °F 30.1 in East 6.9 mph 6.9 mph 61 % 0 in
15:26 79.7 °F 65.1 °F 30.1 in East 6.9 mph 6.9 mph 61 % 0 in
15:31 79.7 °F 65.1 °F 30.1 in SE 6.9 mph 6.9 mph 61 % 0 in
15:36 79.7 °F 65.1 °F 30.1 in ESE 5.9 mph 5.9 mph 61 % 0 in
15:41 80.8 °F 65.7 °F 30 in East 4.6 mph 4.6 mph 60 % 0 in
15:46 81.7 °F 66 °F 30 in SE 2.9 mph 2.9 mph 59 % 0 in
15:51 82.6 °F 66.4 °F 30 in SSW 5.4 mph 5.4 mph 58 % 0 in
15:56 82 °F 65.3 °F 30.1 in East 4.6 mph 4.6 mph 57 % 0 in
16:01 82.6 °F 66.4 °F 30.1 in SSW 2.3 mph 2.3 mph 58 % 0 in
16:06 83.7 °F 66.7 °F 30.1 in SW 3.5 mph 3.5 mph 57 % 0 in
16:11 84.2 °F 66.7 °F 30 in SSE 4.6 mph 4.6 mph 56 % 0 in
16:12 84.6 °F 66.6 °F 30 in SW 4.3 mph 4.3 mph 55 % 0 in
16:17 84.9 °F 66.9 °F 30 in SE 5.8 mph 5.8 mph 55 % 0 in
16:22 84 °F 65.7 °F 30.1 in WSW 3.5 mph 3.5 mph 54 % 0 in
16:27 83.5 °F 65.7 °F 30.1 in SW 6.4 mph 6.4 mph 55 % 0 in
16:32 84 °F 66 °F 30.1 in SSW 5.8 mph 5.8 mph 55 % 0 in
16:33 84 °F 66 °F 30.1 in ESE 5.8 mph 5.8 mph 55 % 0 in
16:38 84.7 °F 66.4 °F 30 in West 4.7 mph 4.7 mph 54 % 0 in
16:43 85.1 °F 66 °F 30 in SSW 4.9 mph 4.9 mph 53 % 0 in
16:48 85.6 °F 66.6 °F 30 in West 6.2 mph 6.2 mph 53 % 0 in
16:53 84.9 °F 65.8 °F 30 in West 9.2 mph 9.2 mph 53 % 0 in
16:58 83.8 °F 65.5 °F 30 in SW 4.6 mph 4.6 mph 54 % 0 in
17:03 83.5 °F 65.1 °F 30 in SW 6.9 mph 6.9 mph 54 % 0 in
17:08 83.1 °F 64.8 °F 30 in SSE 4.6 mph 4.6 mph 54 % 0 in
17:13 82.9 °F 64.6 °F 30 in South 5.8 mph 5.8 mph 54 % 0 in
17:18 82.8 °F 64.4 °F 30 in WSW 10.7 mph 10.7 mph 54 % 0 in
17:23 82 °F 64.2 °F 30 in SSW 8.1 mph 8.1 mph 55 % 0 in
17:28 81.1 °F 64 °F 30 in South 9.2 mph 9.2 mph 56 % 0 in
17:33 80.6 °F 63.5 °F 30 in South 6.9 mph 6.9 mph 56 % 0 in
17:38 80.6 °F 63.5 °F 30 in WSW 6.9 mph 6.9 mph 56 % 0 in
17:43 80.8 °F 64 °F 30 in South 4.3 mph 4.3 mph 57 % 0 in
17:48 80.2 °F 64 °F 30 in WSW 6.9 mph 6.9 mph 58 % 0 in
17:53 80.1 °F 64 °F 30 in SW 5.8 mph 5.8 mph 58 % 0 in
17:58 80.1 °F 64.4 °F 30 in SSW 5.8 mph 5.8 mph 59 % 0 in
18:03 80.1 °F 64.4 °F 30 in SW 9.2 mph 9.2 mph 59 % 0 in
18:08 79.7 °F 64.6 °F 30 in South 4.6 mph 4.6 mph 60 % 0 in
18:13 79.5 °F 64.4 °F 30 in SSW 6.9 mph 6.9 mph 60 % 0 in
18:18 79.5 °F 64.4 °F 30 in SW 2.9 mph 2.9 mph 60 % 0 in
18:19 79.5 °F 64.4 °F 30 in SW 6.9 mph 6.9 mph 60 % 0 in
18:24 79.2 °F 64 °F 30 in WSW 6.9 mph 6.9 mph 60 % 0 in
18:29 78.8 °F 64.2 °F 30 in SSW 6.9 mph 6.9 mph 61 % 0 in
18:34 78.4 °F 63.9 °F 30 in SW 8.1 mph 8.1 mph 61 % 0 in
18:39 78.6 °F 64.6 °F 30 in ESE 3.5 mph 3.5 mph 62 % 0 in
18:44 78.8 °F 64.8 °F 30 in SW 1.2 mph 1.4 mph 62 % 0 in
18:49 79.2 °F 64.6 °F 30 in SW 13.8 mph 13.8 mph 61 % 0 in
18:54 78.8 °F 64.8 °F 30 in West 7.1 mph 7.1 mph 62 % 0 in
18:59 78.3 °F 64.2 °F 30 in South 4.6 mph 4.6 mph 62 % 0 in
19:04 78.1 °F 64 °F 30 in SW 5.8 mph 5.8 mph 62 % 0 in
19:09 77.7 °F 63.7 °F 30 in SW 8.1 mph 8.1 mph 62 % 0 in
19:10 73 °F 65.8 °F 30.1 in Calm     78 % 0 in
19:14 77.4 °F 63.9 °F 30 in South 6.9 mph 6.9 mph 63 % 0 in
19:19 77.4 °F 63.9 °F 30 in SSW 3.5 mph 3.5 mph 63 % 0 in
19:24 77.2 °F 64 °F 30 in South 4.6 mph 4.6 mph 64 % 0 in
19:29 77 °F 63.9 °F 30 in SSW 6.9 mph 6.9 mph 64 % 0 in
19:30 72.9 °F 65.7 °F 30.1 in Calm     78 % 0 in
19:34 76.8 °F 64.2 °F 30 in South 5.8 mph 5.8 mph 65 % 0 in
19:39 76.6 °F 64 °F 30.1 in SW 3.5 mph 3.5 mph 65 % 0 in
19:40 72.9 °F 66 °F 30.1 in Calm     79 % 0 in
19:44 76.3 °F 64 °F 30.1 in SW 5.8 mph 5.8 mph 66 % 0 in
19:45 72.9 °F 66 °F 30.1 in Calm     79 % 0 in
19:49 76.1 °F 63.9 °F 30.1 in WSW 3.8 mph 3.8 mph 66 % 0 in
19:54 75.9 °F 64.2 °F 30.1 in West 3.5 mph 3.5 mph 67 % 0 in
19:55 72.9 °F 66 °F 30.1 in Calm   1 mph 79 % 0 in
19:59 75.7 °F 63.7 °F 30.1 in West 6.2 mph 6.2 mph 66 % 0 in
20:04 75.6 °F 63.9 °F 30.1 in SSW 2.3 mph 2.3 mph 67 % 0 in
20:05 72.7 °F 65.8 °F 30.1 in Calm     79 % 0 in
20:09 75.4 °F 63.7 °F 30.1 in WSW 2.3 mph 2.3 mph 67 % 0 in
20:14 75.4 °F 63.7 °F 30.1 in SSW 3.5 mph 3.5 mph 67 % 0 in
20:15 72.5 °F 65.7 °F 30.1 in Calm     79 % 0 in
20:19 75.4 °F 64 °F 30.1 in WSW 1.6 mph   68 % 0 in
20:24 75.4 °F 64 °F 30.1 in SSE 2.4 mph 2.4 mph 68 % 0 in
20:25 72.1 °F 65.7 °F 30.1 in Calm     80 % 0 in
20:29 75.4 °F 64 °F 30.1 in SW 3.5 mph 3.5 mph 68 % 0 in
20:34 75.2 °F 63.9 °F 30.1 in SW 2.3 mph 2.3 mph 68 % 0 in
20:35 71.8 °F 65.3 °F 30.1 in NNW 1 mph 2 mph 80 % 0 in
20:39 75.2 °F 63.9 °F 30.1 in South 3.5 mph 3.5 mph 68 % 0 in
20:44 75.2 °F 63.9 °F 30.1 in SW 2.4 mph 2.4 mph 68 % 0 in
20:45 71.6 °F 65.1 °F 30.1 in NNE 1 mph 2 mph 80 % 0 in
20:49 75.2 °F 63.9 °F 30.1 in SSW 3.5 mph 3.5 mph 68 % 0 in
20:54 75 °F 64.6 °F 30.1 in SSW 1.2 mph 1.2 mph 70 % 0 in
20:55 71.4 °F 64.9 °F 30.1 in Calm   1 mph 80 % 0 in
20:59 74.8 °F 64 °F 30.1 in South 3.5 mph 3.5 mph 69 % 0 in
21:04 74.7 °F 64.2 °F 30.1 in WSW 3.5 mph 3.5 mph 70 % 0 in
21:05 71.6 °F 65.8 °F 30.1 in ENE 1 mph 2 mph 82 % 0 in
21:09 74.5 °F 64 °F 30.1 in SW 4.6 mph 4.6 mph 70 % 0 in
21:14 74.3 °F 63.9 °F 30.1 in WSW 2.3 mph 2.3 mph 70 % 0 in
21:15 71.4 °F 65.3 °F 30.1 in ENE 1 mph 2 mph 81 % 0 in
21:19 74.3 °F 63.9 °F 30.1 in SW 2.4 mph 2.4 mph 70 % 0 in
21:24 74.5 °F 64.6 °F 30.1 in SW 2 mph 2 mph 71 % 0 in
21:25 71.2 °F 65.5 °F 30.1 in East 2 mph 2 mph 82 % 0 in
21:29 74.5 °F 64.6 °F 30.1 in WSW 2.3 mph 2.3 mph 71 % 0 in
21:34 74.3 °F 64.2 °F 30.1 in SW 2.4 mph 2.4 mph 71 % 0 in
21:35 70.9 °F 65.5 °F 30.1 in East 1 mph 3 mph 83 % 0 in
21:39 74.1 °F 64 °F 30.1 in SW 2.9 mph 2.9 mph 71 % 0 in
21:44 73.9 °F 63.9 °F 30.1 in WSW 3.5 mph 3.5 mph 71 % 0 in
21:45 70.3 °F 64.6 °F 30.1 in ENE 3 mph 4 mph 82 % 0 in
21:49 73.9 °F 64.2 °F 30.1 in WSW 3.5 mph 3.5 mph 72 % 0 in
21:54 73.9 °F 64.2 °F 30.1 in SW 1.6 mph 1.6 mph 72 % 0 in
21:55 69.8 °F 64.4 °F 30.1 in ENE 2 mph 3 mph 83 % 0 in
21:59 73.8 °F 64.6 °F 30.1 in SW 2.2 mph 2.2 mph 73 % 0 in
22:04 73.6 °F 64.4 °F 30.1 in SW 1.2 mph   73 % 0 in
22:05 69.8 °F 64.4 °F 30.1 in NE 1 mph 3 mph 83 % 0 in
22:09 73.6 °F 64.4 °F 30.1 in Calm     73 % 0 in
22:14 73.4 °F 64.2 °F 30.1 in SW 2.6 mph 2.6 mph 73 % 0 in
22:15 69.8 °F 64.4 °F 30.1 in NNE 1 mph 2 mph 83 % 0 in
22:19 73.4 °F 64.2 °F 30.1 in SW 1.2 mph   73 % 0 in
22:24 73.2 °F 64.4 °F 30.1 in SW 1.2 mph   74 % 0 in
22:25 69.8 °F 64.4 °F 30.1 in NE 1 mph 2 mph 83 % 0 in
22:29 73.2 °F 64.4 °F 30.1 in SW 3.5 mph 3.5 mph 74 % 0 in
22:34 73 °F 64.2 °F 30.1 in SW 1.2 mph 1.2 mph 74 % 0 in
22:35 69.8 °F 64.8 °F 30.1 in NE 1 mph 2 mph 84 % 0 in
22:39 72.9 °F 64 °F 30.1 in SW 1.2 mph 1.2 mph 74 % 0 in
22:44 72.9 °F 64 °F 30.1 in WSW 2.3 mph 2.3 mph 74 % 0 in
22:45 69.4 °F 63.7 °F 30.1 in North 1 mph 2 mph 82 % 0 in
22:49 72.7 °F 64.2 °F 30.1 in WSW 2.3 mph 2.3 mph 75 % 0 in
22:54 72.7 °F 64.2 °F 30.1 in WSW 1.2 mph 1.2 mph 75 % 0 in
22:55 68.9 °F 60.6 °F 30.1 in NW 2 mph 3 mph 75 % 0 in
22:59 72.7 °F 64.2 °F 30.1 in WSW 1.2 mph   75 % 0 in
23:04 72.9 °F 64.8 °F 30.1 in WSW 1.2 mph 1.2 mph 76 % 0 in
23:05 69.1 °F 58.1 °F 30.1 in WNW 2 mph 3 mph 68 % 0 in
23:09 72.9 °F 64.8 °F 30.1 in WSW 2.3 mph 2.3 mph 76 % 0 in
23:14 72.9 °F 64.8 °F 30.1 in SW 1.2 mph 1.2 mph 76 % 0 in
23:15 68.7 °F 56.5 °F 30 in West 2 mph 3 mph 65 % 0 in
23:19 72.9 °F 64.8 °F 30.1 in SW 1.2 mph   76 % 0 in
23:24 73 °F 64.9 °F 30 in SW 3.5 mph 3.5 mph 76 % 0 in
23:25 68.4 °F 55.2 °F 30 in West 1 mph 1 mph 63 % 0 in
23:29 73 °F 65.5 °F 30 in SW 2.9 mph 2.9 mph 77 % 0 in
23:34 73 °F 64.9 °F 30 in West 3.3 mph 3.3 mph 76 % 0 in
23:35 67.8 °F 54.3 °F 30 in NW 1 mph 3 mph 62 % 0 in
23:39 73.2 °F 65.7 °F 30.1 in West 2.3 mph 2.3 mph 77 % 0 in
23:44 73.2 °F 65.7 °F 30.1 in SW 2.3 mph 2.3 mph 77 % 0 in
23:45 67.3 °F 53.4 °F 30 in West 2 mph 4 mph 61 % 0 in
23:49 73 °F 65.5 °F 30.1 in WSW 2.3 mph 2.3 mph 77 % 0 in
23:54 73 °F 65.5 °F 30.1 in SW 1.6 mph 1.6 mph 77 % 0 in
23:55 66.7 °F 52.3 °F 30 in West 1 mph 4 mph 60 % 0 in
23:59 73 °F 65.5 °F 30.1 in WSW 2.3 mph 2.3 mph 77 % 0 in
Meteo Sesrovires
Elogis d' Weather Underground - 3.75 mb

Guio original per  Jim McMurry - jmcmurry@mwt.net Adaptat per a la plantilla per  Wim van der Kuil - Leuven-Template.eu

Trobareu la nostra informacio del temps tambe a:

Weather Underground

AWEKAS